createdAt,value
2023-01-09T00:01:48.155Z,8.14
2023-01-09T00:04:16.397Z,8.38
2023-01-09T00:06:46.430Z,8.14
2023-01-09T00:09:14.505Z,8.12
2023-01-09T00:11:42.502Z,8.22
2023-01-09T00:14:11.212Z,8.43
2023-01-09T00:16:39.292Z,8.12
2023-01-09T00:19:11.359Z,8.34
2023-01-09T00:21:39.567Z,8.49
2023-01-09T00:24:07.945Z,8.11
2023-01-09T00:26:36.399Z,8.36
2023-01-09T00:29:05.901Z,8.24
2023-01-09T00:31:34.072Z,7.92
2023-01-09T00:34:03.831Z,8.01
2023-01-09T00:36:33.207Z,8.11
2023-01-09T00:39:01.342Z,8.35
2023-01-09T00:41:33.239Z,7.96
2023-01-09T00:44:04.019Z,8.10
2023-01-09T00:46:33.959Z,8.08
2023-01-09T00:49:04.022Z,8.00
2023-01-09T00:51:33.600Z,8.03
2023-01-09T00:54:03.444Z,8.12
2023-01-09T00:56:31.618Z,7.99
2023-01-09T00:58:59.599Z,8.01
2023-01-09T01:01:27.844Z,8.16
2023-01-09T01:03:56.067Z,8.13
2023-01-09T01:06:46.891Z,8.04
2023-01-09T01:09:16.273Z,8.04
2023-01-09T01:11:44.382Z,8.10
2023-01-09T01:14:12.512Z,8.18
2023-01-09T01:16:41.050Z,8.26
2023-01-09T01:19:09.158Z,8.13
2023-01-09T01:21:37.213Z,8.10
2023-01-09T01:24:05.593Z,8.11
2023-01-09T01:26:34.961Z,8.43
2023-01-09T01:29:03.053Z,8.24
2023-01-09T01:31:31.052Z,8.08
2023-01-09T01:33:59.041Z,7.95
2023-01-09T01:36:27.128Z,7.94
2023-01-09T01:38:55.171Z,8.15
2023-01-09T01:41:30.195Z,7.98
2023-01-09T01:44:00.606Z,8.11
2023-01-09T01:46:29.391Z,8.24
2023-01-09T01:49:00.339Z,8.25
2023-01-09T01:51:29.763Z,8.07
2023-01-09T01:53:59.728Z,8.07
2023-01-09T01:56:29.000Z,8.26
2023-01-09T01:58:59.419Z,8.22
2023-01-09T02:01:29.034Z,8.21
2023-01-09T02:03:58.440Z,8.24
2023-01-09T02:06:27.009Z,8.34
2023-01-09T02:08:55.582Z,8.21
2023-01-09T02:11:26.109Z,8.17
2023-01-09T02:13:54.233Z,8.05
2023-01-09T02:16:31.106Z,8.09
2023-01-09T02:19:03.472Z,8.08
2023-01-09T02:21:38.790Z,8.17
2023-01-09T02:24:09.822Z,8.09
2023-01-09T02:26:58.664Z,8.12
2023-01-09T02:29:47.556Z,7.96
2023-01-09T02:32:25.384Z,8.01
2023-01-09T02:34:59.117Z,8.11
2023-01-09T02:37:33.636Z,7.85
2023-01-09T02:40:05.465Z,7.94
2023-01-09T02:42:35.391Z,7.89
2023-01-09T02:45:06.033Z,7.78
2023-01-09T02:47:40.192Z,7.78
2023-01-09T02:50:10.666Z,7.81
2023-01-09T02:52:47.852Z,7.71
2023-01-09T02:55:22.551Z,7.71
2023-01-09T02:57:55.747Z,7.69
2023-01-09T03:00:30.018Z,7.80
2023-01-09T03:03:05.008Z,7.80
2023-01-09T03:05:36.155Z,8.04
2023-01-09T03:08:05.566Z,8.11
2023-01-09T03:10:37.021Z,8.03
2023-01-09T03:13:06.401Z,8.06
2023-01-09T03:15:36.193Z,8.00
2023-01-09T03:18:07.656Z,7.87
2023-01-09T03:20:35.740Z,7.81
2023-01-09T03:23:05.989Z,7.99
2023-01-09T03:25:34.373Z,8.00
2023-01-09T03:28:03.342Z,7.97
2023-01-09T03:30:32.104Z,8.04
2023-01-09T03:33:00.557Z,7.85
2023-01-09T03:35:29.998Z,7.77
2023-01-09T03:37:59.016Z,7.59
2023-01-09T03:40:27.066Z,7.30
2023-01-09T03:42:57.172Z,7.14
2023-01-09T03:45:27.329Z,6.89
2023-01-09T03:47:58.463Z,6.80
2023-01-09T03:50:26.619Z,6.85
2023-01-09T03:52:55.925Z,6.73
2023-01-09T03:55:23.964Z,6.78
2023-01-09T03:57:52.671Z,6.73
2023-01-09T04:00:21.194Z,6.69
2023-01-09T04:02:49.306Z,6.73
2023-01-09T04:05:17.557Z,6.52
2023-01-09T04:07:46.034Z,6.50
2023-01-09T04:10:15.405Z,6.41
2023-01-09T04:12:43.857Z,6.49
2023-01-09T04:15:12.368Z,6.50
2023-01-09T04:17:40.527Z,6.41
2023-01-09T04:20:10.164Z,6.42
2023-01-09T04:22:38.490Z,6.28
2023-01-09T04:25:07.869Z,6.36
2023-01-09T04:27:37.613Z,6.35
2023-01-09T04:30:07.326Z,6.41
2023-01-09T04:32:35.640Z,6.26
2023-01-09T04:35:04.035Z,6.56
2023-01-09T04:37:36.193Z,6.37
2023-01-09T04:40:06.779Z,6.35
2023-01-09T04:42:39.615Z,6.15
2023-01-09T04:45:12.450Z,6.40
2023-01-09T04:47:40.778Z,6.22
2023-01-09T04:50:10.712Z,6.53
2023-01-09T04:52:39.251Z,6.51
2023-01-09T04:55:08.981Z,6.60
2023-01-09T04:57:39.060Z,6.50
2023-01-09T05:00:11.980Z,6.48
2023-01-09T05:02:41.873Z,6.34
2023-01-09T05:05:12.136Z,6.41
2023-01-09T05:07:40.920Z,6.54
2023-01-09T05:10:10.832Z,6.44
2023-01-09T05:12:40.801Z,6.71
2023-01-09T05:15:12.366Z,6.51
2023-01-09T05:17:40.801Z,6.64
2023-01-09T05:20:10.058Z,6.67
2023-01-09T05:22:38.399Z,6.45
2023-01-09T05:25:07.735Z,6.50
2023-01-09T05:27:38.162Z,6.44
2023-01-09T05:30:09.332Z,6.31
2023-01-09T05:32:37.622Z,6.33
2023-01-09T05:35:06.952Z,6.43
2023-01-09T05:37:35.257Z,6.15
2023-01-09T05:40:03.766Z,6.40
2023-01-09T05:42:32.028Z,6.27
2023-01-09T05:45:00.268Z,6.39
2023-01-09T05:47:30.086Z,6.12
2023-01-09T05:49:58.820Z,5.94
2023-01-09T05:52:27.172Z,6.12
2023-01-09T05:54:55.416Z,6.00
2023-01-09T05:57:23.906Z,5.91
2023-01-09T05:59:54.864Z,5.96
2023-01-09T06:02:23.316Z,6.03
2023-01-09T06:04:52.988Z,5.91
2023-01-09T06:07:23.416Z,5.96
2023-01-09T06:09:51.812Z,6.06
2023-01-09T06:12:20.328Z,5.94
2023-01-09T06:14:48.653Z,5.56
2023-01-09T06:17:16.978Z,5.80
2023-01-09T06:19:45.618Z,5.52
2023-01-09T06:22:15.492Z,5.91
2023-01-09T06:24:43.862Z,5.98
2023-01-09T06:27:13.028Z,5.82
2023-01-09T06:29:43.753Z,6.03
2023-01-09T06:32:12.121Z,5.57
2023-01-09T06:34:40.397Z,5.85
2023-01-09T06:37:08.784Z,5.68
2023-01-09T06:39:38.533Z,5.99
2023-01-09T06:42:07.330Z,5.86
2023-01-09T06:44:36.662Z,5.93
2023-01-09T06:47:07.255Z,6.08
2023-01-09T06:49:35.632Z,6.12
2023-01-09T06:52:05.618Z,6.20
2023-01-09T06:54:34.281Z,6.09
2023-01-09T06:57:04.047Z,6.17
2023-01-09T06:59:32.431Z,6.41
2023-01-09T07:02:00.778Z,6.18
2023-01-09T07:04:29.493Z,6.32
2023-01-09T07:06:57.870Z,6.36
2023-01-09T07:09:26.152Z,6.29
2023-01-09T07:11:56.583Z,6.27
2023-01-09T07:14:26.274Z,6.18
2023-01-09T07:16:54.606Z,6.50
2023-01-09T07:19:23.058Z,6.17
2023-01-09T07:21:51.431Z,6.38
2023-01-09T07:24:19.870Z,6.53
2023-01-09T07:26:48.180Z,6.51
2023-01-09T07:29:16.460Z,6.29
2023-01-09T07:31:48.143Z,6.51
2023-01-09T07:34:16.573Z,6.39
2023-01-09T07:36:46.519Z,6.60
2023-01-09T07:39:15.116Z,6.48
2023-01-09T07:41:43.489Z,6.68
2023-01-09T07:44:11.960Z,6.51
2023-01-09T07:46:43.360Z,6.41
2023-01-09T07:49:13.100Z,6.85
2023-01-09T07:51:43.235Z,6.70
2023-01-09T07:54:12.612Z,6.77
2023-01-09T07:56:41.361Z,6.37
2023-01-09T07:59:09.899Z,6.60
2023-01-09T08:01:38.327Z,6.97
2023-01-09T08:04:06.743Z,6.82
2023-01-09T08:06:36.586Z,6.38
2023-01-09T08:09:06.981Z,6.34
2023-01-09T08:11:35.309Z,6.15
2023-01-09T08:14:03.862Z,6.30
2023-01-09T08:16:32.243Z,6.42
2023-01-09T08:19:00.592Z,6.35
2023-01-09T08:21:29.072Z,6.77
2023-01-09T08:23:58.691Z,6.57
2023-01-09T08:26:27.067Z,6.94
2023-01-09T08:28:57.651Z,6.97
2023-01-09T08:31:26.289Z,7.00
2023-01-09T08:33:54.703Z,7.02
2023-01-09T08:36:23.100Z,6.92
2023-01-09T08:38:51.457Z,6.88
2023-01-09T08:41:35.008Z,6.82
2023-01-09T08:44:21.031Z,6.97
2023-01-09T08:47:07.565Z,7.14
2023-01-09T08:49:37.734Z,7.19
2023-01-09T08:52:07.343Z,7.08
2023-01-09T08:54:36.999Z,7.34
2023-01-09T08:57:07.008Z,7.17
2023-01-09T08:59:36.779Z,7.52
2023-01-09T09:02:05.190Z,7.55
2023-01-09T09:04:34.879Z,8.11
2023-01-09T09:07:03.237Z,7.99
2023-01-09T09:09:31.650Z,7.98
2023-01-09T09:11:59.956Z,8.02
2023-01-09T09:14:47.329Z,7.77
2023-01-09T09:17:15.736Z,7.94
2023-01-09T09:19:44.091Z,7.68
2023-01-09T09:22:12.459Z,7.98
2023-01-09T09:24:40.717Z,7.89
2023-01-09T09:27:09.082Z,7.69
2023-01-09T09:29:38.725Z,7.85
2023-01-09T09:32:07.106Z,7.66
2023-01-09T09:34:35.615Z,7.97
2023-01-09T09:37:04.451Z,7.83
2023-01-09T09:39:32.857Z,7.89
2023-01-09T09:42:51.065Z,7.93
2023-01-09T09:45:31.821Z,8.26
2023-01-09T09:48:12.769Z,8.10
2023-01-09T09:51:03.997Z,8.27
2023-01-09T09:53:38.932Z,8.32
2023-01-09T09:56:12.669Z,8.32
2023-01-09T09:58:43.177Z,8.36
2023-01-09T10:01:29.863Z,8.65
2023-01-09T10:04:02.372Z,8.23
2023-01-09T10:06:33.649Z,8.26
2023-01-09T10:09:08.340Z,8.53
2023-01-09T10:11:46.272Z,8.35
2023-01-09T10:14:24.238Z,8.36
2023-01-09T10:17:07.099Z,8.65
2023-01-09T10:19:52.443Z,8.36
2023-01-09T10:22:32.941Z,8.24
2023-01-09T10:25:13.201Z,8.19
2023-01-09T10:27:58.343Z,8.54
2023-01-09T10:30:38.217Z,8.67
2023-01-09T10:33:25.788Z,8.51
2023-01-09T10:36:12.223Z,8.63
2023-01-09T10:38:44.378Z,8.58
2023-01-09T10:41:19.318Z,8.85
2023-01-09T10:43:53.612Z,8.53
2023-01-09T10:46:29.152Z,8.48
2023-01-09T10:49:01.432Z,8.57
2023-01-09T10:51:37.222Z,8.69
2023-01-09T10:54:12.425Z,8.52
2023-01-09T10:56:45.881Z,8.28
2023-01-09T10:59:14.434Z,8.50
2023-01-09T11:01:43.370Z,8.56
2023-01-09T11:04:21.636Z,8.43
2023-01-09T11:06:53.841Z,8.42
2023-01-09T11:09:22.216Z,8.88
2023-01-09T11:11:52.682Z,8.64
2023-01-09T11:14:27.812Z,8.72
2023-01-09T11:16:57.849Z,8.68
2023-01-09T11:19:28.206Z,8.80
2023-01-09T11:22:08.275Z,8.80
2023-01-09T11:24:36.659Z,8.75
2023-01-09T11:27:26.970Z,8.72
2023-01-09T11:30:16.589Z,9.30
2023-01-09T11:32:46.829Z,9.25
2023-01-09T11:35:22.573Z,9.70
2023-01-09T11:38:02.550Z,9.05
2023-01-09T11:40:36.755Z,8.58
2023-01-09T11:43:14.244Z,8.59
2023-01-09T11:46:00.137Z,8.58
2023-01-09T11:48:35.764Z,8.74
2023-01-09T11:51:17.970Z,8.46
2023-01-09T11:53:59.462Z,8.81
2023-01-09T11:56:28.039Z,8.46
2023-01-09T11:58:56.268Z,8.45
2023-01-09T12:01:39.161Z,8.33
2023-01-09T12:04:23.449Z,8.31
2023-01-09T12:07:16.054Z,8.67
2023-01-09T12:09:52.565Z,8.57
2023-01-09T12:12:30.591Z,8.21
2023-01-09T12:15:15.044Z,8.23
2023-01-09T12:18:03.649Z,8.65
2023-01-09T12:20:51.475Z,9.12
2023-01-09T12:23:41.090Z,8.62
2023-01-09T12:26:18.956Z,8.42
2023-01-09T12:29:00.144Z,8.00
2023-01-09T12:31:44.141Z,7.96
2023-01-09T12:34:28.590Z,8.17
2023-01-09T12:37:11.815Z,8.75
2023-01-09T12:39:49.028Z,8.01
2023-01-09T12:42:33.660Z,8.46
2023-01-09T12:45:03.117Z,7.97
2023-01-09T12:47:41.469Z,8.38
2023-01-09T12:50:18.988Z,8.35
2023-01-09T12:52:49.570Z,8.31
2023-01-09T12:55:21.435Z,8.40
2023-01-09T12:57:50.827Z,8.14
2023-01-09T13:00:22.160Z,8.55
2023-01-09T13:03:07.180Z,8.32
2023-01-09T13:05:43.897Z,8.01
2023-01-09T13:08:14.910Z,8.19
2023-01-09T13:10:46.837Z,8.13
2023-01-09T13:13:17.981Z,8.04
2023-01-09T13:15:48.690Z,7.91
2023-01-09T13:18:20.689Z,7.95
2023-01-09T13:20:50.488Z,8.00
2023-01-09T13:23:23.043Z,7.84
2023-01-09T13:25:53.958Z,7.73
2023-01-09T13:28:23.839Z,7.69
2023-01-09T13:31:12.724Z,7.67
2023-01-09T13:33:43.222Z,7.83
2023-01-09T13:36:20.678Z,8.00
2023-01-09T13:38:50.073Z,8.21
2023-01-09T13:41:37.734Z,8.33
2023-01-09T13:44:07.226Z,8.02
2023-01-09T13:46:36.884Z,7.78
2023-01-09T13:49:05.423Z,7.73
2023-01-09T13:51:37.841Z,7.77
2023-01-09T13:54:06.125Z,7.92
2023-01-09T13:56:55.688Z,7.42
2023-01-09T13:59:28.022Z,7.55
2023-01-09T14:01:56.174Z,8.00
2023-01-09T14:04:44.345Z,8.51
2023-01-09T14:07:16.626Z,8.68
2023-01-09T14:09:48.116Z,8.16
2023-01-09T14:12:20.531Z,8.30
2023-01-09T14:14:49.997Z,8.44
2023-01-09T14:17:19.573Z,7.95
2023-01-09T14:19:47.636Z,8.11
2023-01-09T14:22:25.095Z,8.41
2023-01-09T14:24:56.176Z,8.28
2023-01-09T14:27:43.146Z,7.96
2023-01-09T14:30:28.360Z,7.82
2023-01-09T14:32:57.784Z,7.72
2023-01-09T14:35:36.089Z,7.58
2023-01-09T14:38:06.299Z,7.51
2023-01-09T14:40:37.036Z,7.35
2023-01-09T14:43:13.866Z,7.43
2023-01-09T14:45:45.493Z,7.53
2023-01-09T14:48:14.016Z,7.45
2023-01-09T14:50:45.139Z,7.30
2023-01-09T14:53:16.914Z,7.39
2023-01-09T14:55:50.600Z,7.73
2023-01-09T14:58:22.825Z,7.42
2023-01-09T15:00:56.498Z,7.48
2023-01-09T15:03:26.287Z,7.19
2023-01-09T15:05:54.545Z,5.57
2023-01-09T15:08:27.889Z,5.34
2023-01-09T15:10:58.032Z,5.15
2023-01-09T15:13:29.314Z,4.99
2023-01-09T15:16:00.108Z,5.04
2023-01-09T15:18:32.197Z,4.99
2023-01-09T15:21:03.507Z,5.04
2023-01-09T15:23:32.732Z,5.15
2023-01-09T15:26:15.995Z,5.12
2023-01-09T15:28:44.947Z,5.09
2023-01-09T15:31:19.098Z,5.45
2023-01-09T15:33:49.443Z,4.88
2023-01-09T15:36:21.750Z,5.21
2023-01-09T15:38:51.897Z,5.24
2023-01-09T15:41:39.162Z,5.15
2023-01-09T15:44:14.261Z,5.18
2023-01-09T15:46:50.036Z,5.35
2023-01-09T15:49:19.886Z,5.39
2023-01-09T15:51:49.904Z,5.16
2023-01-09T15:54:24.315Z,5.14
2023-01-09T15:56:52.877Z,5.39
2023-01-09T15:59:27.813Z,5.13
2023-01-09T16:02:15.634Z,5.40
2023-01-09T16:04:44.405Z,5.17
2023-01-09T16:07:17.715Z,5.24
2023-01-09T16:09:48.328Z,5.15
2023-01-09T16:12:21.050Z,5.06
2023-01-09T16:14:52.619Z,5.19
2023-01-09T16:17:26.636Z,5.45
2023-01-09T16:19:57.959Z,5.68
2023-01-09T16:22:28.622Z,5.44
2023-01-09T16:24:58.758Z,5.11
2023-01-09T16:27:30.439Z,5.11
2023-01-09T16:30:02.639Z,4.94
2023-01-09T16:32:33.926Z,5.11
2023-01-09T16:35:06.029Z,5.08
2023-01-09T16:37:37.356Z,5.06
2023-01-09T16:40:25.133Z,4.92
2023-01-09T16:43:02.098Z,4.70
2023-01-09T16:45:35.461Z,4.77
2023-01-09T16:48:13.437Z,5.11
2023-01-09T16:50:42.536Z,5.04
2023-01-09T16:53:16.673Z,5.15
2023-01-09T16:55:47.707Z,5.12
2023-01-09T16:58:18.804Z,5.19
2023-01-09T17:00:47.834Z,5.16
2023-01-09T17:03:21.209Z,5.05
2023-01-09T17:05:55.290Z,5.20
2023-01-09T17:08:26.282Z,5.16
2023-01-09T17:10:56.310Z,5.34
2023-01-09T17:13:25.653Z,5.43
2023-01-09T17:15:55.749Z,5.58
2023-01-09T17:18:27.248Z,5.52
2023-01-09T17:20:58.164Z,5.64
2023-01-09T17:23:26.741Z,5.57
2023-01-09T17:26:16.753Z,5.77
2023-01-09T17:28:48.850Z,5.51
2023-01-09T17:31:17.601Z,5.92
2023-01-09T17:33:47.320Z,5.86
2023-01-09T17:36:23.483Z,6.14
2023-01-09T17:38:54.783Z,6.07
2023-01-09T17:41:23.764Z,5.88
2023-01-09T17:43:52.315Z,5.91
2023-01-09T17:46:27.270Z,6.13
2023-01-09T17:48:57.144Z,5.91
2023-01-09T17:51:25.975Z,6.18
2023-01-09T17:53:54.582Z,5.92
2023-01-09T17:56:25.608Z,5.83
2023-01-09T17:58:54.411Z,6.17
2023-01-09T18:01:22.956Z,6.07
2023-01-09T18:03:51.967Z,5.93
2023-01-09T18:06:23.196Z,5.64
2023-01-09T18:08:51.504Z,5.84
2023-01-09T18:11:22.548Z,5.71
2023-01-09T18:13:51.532Z,5.64
2023-01-09T18:16:20.297Z,5.55
2023-01-09T18:18:48.487Z,5.56
2023-01-09T18:21:17.635Z,5.34
2023-01-09T18:23:50.211Z,5.44
2023-01-09T18:26:21.391Z,5.36
2023-01-09T18:28:50.611Z,5.30
2023-01-09T18:31:22.625Z,5.32
2023-01-09T18:33:52.659Z,5.08
2023-01-09T18:36:23.805Z,5.00
2023-01-09T18:38:54.152Z,5.18
2023-01-09T18:41:22.758Z,5.07
2023-01-09T18:43:51.333Z,4.99
2023-01-09T18:46:23.857Z,5.15
2023-01-09T18:48:53.380Z,5.13
2023-01-09T18:51:22.716Z,5.07
2023-01-09T18:53:53.167Z,4.90
2023-01-09T18:56:21.836Z,5.21
2023-01-09T18:58:50.192Z,5.07
2023-01-09T19:01:18.789Z,5.11
2023-01-09T19:03:47.245Z,5.06
2023-01-09T19:06:15.678Z,4.99
2023-01-09T19:08:45.261Z,5.11
2023-01-09T19:11:17.398Z,5.02
2023-01-09T19:13:45.815Z,4.99
2023-01-09T19:16:15.738Z,5.13
2023-01-09T19:18:44.520Z,5.04
2023-01-09T19:21:14.796Z,5.56
2023-01-09T19:23:47.760Z,5.16
2023-01-09T19:26:20.427Z,5.58
2023-01-09T19:28:50.152Z,5.22
2023-01-09T19:31:19.299Z,5.11
2023-01-09T19:33:47.644Z,5.38
2023-01-09T19:36:15.921Z,5.00
2023-01-09T19:38:45.680Z,5.19
2023-01-09T19:41:21.909Z,5.25
2023-01-09T19:43:51.701Z,5.26
2023-01-09T19:46:21.827Z,5.62
2023-01-09T19:48:51.889Z,5.47
2023-01-09T19:51:21.699Z,5.42
2023-01-09T19:53:53.410Z,5.25
2023-01-09T19:56:25.165Z,5.36
2023-01-09T19:58:55.583Z,5.67
2023-01-09T20:01:26.625Z,5.48
2023-01-09T20:03:59.724Z,5.54
2023-01-09T20:06:27.980Z,5.20
2023-01-09T20:08:58.147Z,5.36
2023-01-09T20:11:30.325Z,5.30
2023-01-09T20:13:58.864Z,5.43
2023-01-09T20:16:30.462Z,5.20
2023-01-09T20:19:01.124Z,5.25
2023-01-09T20:21:29.944Z,5.59
2023-01-09T20:24:00.685Z,5.45
2023-01-09T20:26:30.568Z,5.76
2023-01-09T20:28:59.583Z,5.37
2023-01-09T20:31:28.551Z,5.51
2023-01-09T20:33:56.725Z,5.46
2023-01-09T20:36:27.589Z,5.41
2023-01-09T20:38:59.073Z,5.40
2023-01-09T20:41:31.481Z,5.43
2023-01-09T20:44:01.179Z,5.56
2023-01-09T20:46:31.001Z,5.68
2023-01-09T20:48:59.766Z,5.71
2023-01-09T20:51:28.507Z,5.63
2023-01-09T20:53:59.863Z,5.75
2023-01-09T20:56:28.430Z,5.40
2023-01-09T20:58:58.316Z,5.87
2023-01-09T21:01:26.684Z,5.57
2023-01-09T21:03:55.548Z,5.44
2023-01-09T21:06:24.915Z,5.60
2023-01-09T21:08:53.159Z,5.87
2023-01-09T21:11:22.362Z,5.72
2023-01-09T21:13:53.221Z,5.60
2023-01-09T21:16:24.887Z,5.68
2023-01-09T21:18:56.481Z,5.83
2023-01-09T21:21:27.203Z,5.56
2023-01-09T21:23:56.185Z,5.78
2023-01-09T21:26:27.416Z,5.77
2023-01-09T21:28:56.096Z,5.74
2023-01-09T21:31:28.733Z,5.90
2023-01-09T21:33:56.919Z,5.80
2023-01-09T21:36:25.000Z,5.94
2023-01-09T21:38:54.070Z,5.86
2023-01-09T21:41:45.988Z,6.04
2023-01-09T21:44:31.614Z,5.75
2023-01-09T21:47:02.082Z,5.82
2023-01-09T21:49:31.442Z,6.06
2023-01-09T21:51:59.513Z,5.95
2023-01-09T21:54:27.593Z,5.77
2023-01-09T21:56:55.749Z,5.89
2023-01-09T22:02:41.008Z,5.71
2023-01-09T22:05:09.369Z,5.74
2023-01-09T22:07:37.452Z,5.87
2023-01-09T22:10:05.907Z,5.80
2023-01-09T22:12:34.007Z,5.64
2023-01-09T22:15:02.258Z,5.88
2023-01-09T22:17:30.757Z,5.57
2023-01-09T22:20:03.195Z,5.57
2023-01-09T22:22:33.569Z,5.54
2023-01-09T22:25:06.935Z,5.63
2023-01-09T22:27:37.701Z,5.55
2023-01-09T22:30:06.251Z,5.65
2023-01-09T22:32:38.727Z,5.51
2023-01-09T22:35:08.995Z,5.57
2023-01-09T22:37:39.462Z,5.54
2023-01-09T22:40:08.073Z,5.59
2023-01-09T22:42:36.191Z,5.53
2023-01-09T22:45:04.536Z,5.50
2023-01-09T22:47:33.261Z,5.43
2023-01-09T22:50:01.863Z,5.49
2023-01-09T22:52:31.495Z,5.56
2023-01-09T22:54:59.910Z,5.53
2023-01-09T22:57:28.265Z,5.36
2023-01-09T22:59:59.516Z,5.24
2023-01-09T23:02:27.949Z,5.52
2023-01-09T23:04:58.306Z,5.46
2023-01-09T23:07:27.006Z,5.51
2023-01-09T23:10:00.493Z,5.58
2023-01-09T23:12:28.971Z,5.27
2023-01-09T23:14:57.263Z,5.41
2023-01-09T23:17:28.003Z,5.51
2023-01-09T23:19:56.501Z,5.53
2023-01-09T23:22:25.872Z,5.36
2023-01-09T23:24:54.291Z,5.50
2023-01-09T23:27:23.993Z,5.53
2023-01-09T23:29:52.275Z,5.57
2023-01-09T23:32:20.637Z,5.63
2023-01-09T23:34:52.401Z,5.49
2023-01-09T23:37:23.467Z,5.70
2023-01-09T23:39:51.750Z,5.56
2023-01-09T23:42:52.620Z,5.57
2023-01-09T23:45:23.247Z,5.59
2023-01-09T23:47:51.852Z,5.51
2023-01-09T23:50:20.209Z,5.34
2023-01-09T23:52:48.562Z,5.50
2023-01-09T23:55:16.927Z,5.44
2023-01-09T23:57:45.885Z,5.72
